createdAt,value
2018-07-23T00:01:27.082Z,54.10
2018-07-23T00:04:01.173Z,54.20
2018-07-23T00:06:29.475Z,54.40
2018-07-23T00:08:57.708Z,54.50
2018-07-23T00:11:26.978Z,54.60
2018-07-23T00:13:55.808Z,54.80
2018-07-23T00:16:24.827Z,54.90
2018-07-23T00:18:53.962Z,54.90
2018-07-23T00:21:23.772Z,54.80
2018-07-23T00:23:52.041Z,54.80
2018-07-23T00:26:21.490Z,54.70
2018-07-23T00:28:51.379Z,54.60
2018-07-23T00:31:20.054Z,54.70
2018-07-23T00:33:49.430Z,54.80
2018-07-23T00:36:17.646Z,54.90
2018-07-23T00:38:47.122Z,55.00
2018-07-23T00:41:17.044Z,55.00
2018-07-23T00:43:46.545Z,55.00
2018-07-23T00:46:16.304Z,55.20
2018-07-23T00:48:44.518Z,55.30
2018-07-23T00:51:13.227Z,55.40
2018-07-23T00:53:44.222Z,55.30
2018-07-23T00:56:14.314Z,55.40
2018-07-23T00:58:43.037Z,55.50
2018-07-23T01:01:13.136Z,55.50
2018-07-23T01:03:41.491Z,55.60
2018-07-23T01:06:10.658Z,55.60
2018-07-23T01:08:43.999Z,55.70
2018-07-23T01:11:12.718Z,55.80
2018-07-23T01:13:40.906Z,55.80
2018-07-23T01:18:38.262Z,56.00
2018-07-23T01:23:35.900Z,56.20
2018-07-23T01:26:04.612Z,56.20
2018-07-23T01:28:37.927Z,56.20
2018-07-23T01:31:07.568Z,56.10
2018-07-23T01:33:37.479Z,56.20
2018-07-23T01:36:05.707Z,56.20
2018-07-23T01:38:36.394Z,56.30
2018-07-23T01:41:05.214Z,56.40
2018-07-23T01:43:35.118Z,56.50
2018-07-23T01:46:04.743Z,56.50
2018-07-23T01:48:35.363Z,56.60
2018-07-23T01:51:05.258Z,56.60
2018-07-23T01:53:34.882Z,56.80
2018-07-23T01:56:05.103Z,56.90
2018-07-23T01:58:34.011Z,57.10
2018-07-23T02:01:08.717Z,57.10
2018-07-23T02:03:37.600Z,57.30
2018-07-23T02:06:07.355Z,57.40
2018-07-23T02:08:36.929Z,57.50
2018-07-23T02:11:06.621Z,57.40
2018-07-23T02:13:37.778Z,57.50
2018-07-23T02:16:07.231Z,57.70
2018-07-23T02:18:39.873Z,57.70
2018-07-23T02:21:09.588Z,57.70
2018-07-23T02:23:39.032Z,57.80
2018-07-23T02:26:08.486Z,57.90
2018-07-23T02:28:36.740Z,58.00
2018-07-23T02:31:07.435Z,58.10
2018-07-23T02:33:36.893Z,58.00
2018-07-23T02:36:06.795Z,58.10
2018-07-23T02:38:35.707Z,58.20
2018-07-23T02:41:03.996Z,58.30
2018-07-23T02:43:32.935Z,58.40
2018-07-23T02:48:30.444Z,59.10
2018-07-23T02:51:00.687Z,58.50
2018-07-23T02:53:29.669Z,58.60
2018-07-23T02:55:57.891Z,58.70
2018-07-23T02:58:27.088Z,58.70
2018-07-23T03:00:55.904Z,58.80
2018-07-23T03:03:25.450Z,58.70
2018-07-23T03:05:54.566Z,58.80
2018-07-23T03:08:23.470Z,58.90
2018-07-23T03:10:51.695Z,58.90
2018-07-23T03:13:21.299Z,58.90
2018-07-23T03:15:49.926Z,59.00
2018-07-23T03:18:18.560Z,59.00
2018-07-23T03:20:47.284Z,59.10
2018-07-23T03:23:16.093Z,59.10
2018-07-23T03:25:44.650Z,59.10
2018-07-23T03:28:12.921Z,59.30
2018-07-23T03:30:41.159Z,59.50
2018-07-23T03:33:09.595Z,59.60
2018-07-23T03:35:38.594Z,59.70
2018-07-23T03:38:07.273Z,59.80
2018-07-23T03:40:41.536Z,60.00
2018-07-23T03:43:11.093Z,60.30
2018-07-23T03:45:40.105Z,60.60
2018-07-23T03:48:09.391Z,60.60
2018-07-23T03:50:38.075Z,60.90
2018-07-23T03:53:07.613Z,60.90
2018-07-23T03:55:35.859Z,61.20
2018-07-23T03:58:04.414Z,61.60
2018-07-23T04:00:33.282Z,61.60
2018-07-23T04:03:01.906Z,61.80
2018-07-23T04:05:34.773Z,62.10
2018-07-23T04:10:31.293Z,62.60
2018-07-23T04:12:59.943Z,62.90
2018-07-23T04:15:28.141Z,62.90
2018-07-23T04:18:02.875Z,63.00
2018-07-23T04:20:33.662Z,63.30
2018-07-23T04:23:02.182Z,63.30
2018-07-23T04:25:31.227Z,63.50
2018-07-23T04:27:59.845Z,63.80
2018-07-23T04:30:31.842Z,63.80
2018-07-23T04:33:00.104Z,63.80
2018-07-23T04:35:28.773Z,63.70
2018-07-23T04:37:59.117Z,63.50
2018-07-23T04:40:27.291Z,63.60
2018-07-23T04:42:55.517Z,63.60
2018-07-23T04:45:26.195Z,63.80
2018-07-23T04:47:55.254Z,63.90
2018-07-23T04:50:23.782Z,64.00
2018-07-23T04:52:56.446Z,64.10
2018-07-23T04:55:24.674Z,64.10
2018-07-23T04:57:52.863Z,64.00
2018-07-23T05:00:21.604Z,64.10
2018-07-23T05:02:51.500Z,63.90
2018-07-23T05:05:20.355Z,64.00
2018-07-23T05:07:50.237Z,63.90
2018-07-23T05:10:18.533Z,64.10
2018-07-23T05:12:47.227Z,64.00
2018-07-23T05:15:16.739Z,64.00
2018-07-23T05:17:46.100Z,63.80
2018-07-23T05:22:48.099Z,63.70
2018-07-23T05:25:18.005Z,63.60
2018-07-23T05:27:46.823Z,63.40
2018-07-23T05:32:44.547Z,63.90
2018-07-23T05:35:12.747Z,63.20
2018-07-23T05:37:44.947Z,63.40
2018-07-23T05:40:16.779Z,63.40
2018-07-23T05:42:44.979Z,63.80
2018-07-23T05:45:15.787Z,63.50
2018-07-23T05:47:44.251Z,63.50
2018-07-23T05:50:13.050Z,64.80
2018-07-23T05:52:43.306Z,64.20
2018-07-23T05:55:12.155Z,64.30
2018-07-23T05:57:40.428Z,65.10
2018-07-23T06:02:42.467Z,64.40
2018-07-23T06:05:10.691Z,64.40
2018-07-23T06:07:38.934Z,65.00
2018-07-23T06:10:08.804Z,65.20
2018-07-23T06:12:37.801Z,65.10
2018-07-23T06:15:08.347Z,65.40
2018-07-23T06:17:37.637Z,65.70
2018-07-23T06:20:08.037Z,65.70
2018-07-23T06:22:43.590Z,65.60
2018-07-23T06:25:11.949Z,65.50
2018-07-23T06:27:40.544Z,65.50
2018-07-23T06:30:11.170Z,65.40
2018-07-23T06:32:39.982Z,65.10
2018-07-23T06:35:08.753Z,64.90
2018-07-23T06:37:37.760Z,63.90
2018-07-23T06:40:08.600Z,63.30
2018-07-23T06:42:38.071Z,62.40
2018-07-23T06:45:08.416Z,61.50
2018-07-23T06:47:39.973Z,61.20
2018-07-23T06:50:09.919Z,60.80
2018-07-23T06:52:38.506Z,60.00
2018-07-23T06:55:07.873Z,59.50
2018-07-23T06:57:36.102Z,59.00
2018-07-23T07:00:05.871Z,58.50
2018-07-23T07:02:36.089Z,58.40
2018-07-23T07:05:07.824Z,58.50
2018-07-23T07:10:09.826Z,58.40
2018-07-23T07:12:39.119Z,58.10
2018-07-23T07:15:08.424Z,58.00
2018-07-23T07:17:39.179Z,57.80
2018-07-23T07:22:37.529Z,57.30
2018-07-23T07:25:07.424Z,57.30
2018-07-23T07:27:36.551Z,57.30
2018-07-23T07:30:07.141Z,56.90
2018-07-23T07:32:37.231Z,56.10
2018-07-23T07:35:05.756Z,56.00
2018-07-23T07:37:34.530Z,55.90
2018-07-23T07:40:04.743Z,55.50
2018-07-23T07:42:34.753Z,55.40
2018-07-23T07:45:06.329Z,55.60
2018-07-23T07:47:34.560Z,55.50
2018-07-23T07:50:03.574Z,55.20
2018-07-23T07:52:32.714Z,55.00
2018-07-23T07:55:01.562Z,54.90
2018-07-23T07:57:29.837Z,54.10
2018-07-23T08:00:00.578Z,53.70
2018-07-23T08:02:29.207Z,53.70
2018-07-23T08:04:58.398Z,53.50
2018-07-23T08:07:27.424Z,52.50
2018-07-23T08:09:56.749Z,52.00
2018-07-23T08:12:26.347Z,52.10
2018-07-23T08:17:25.720Z,52.10
2018-07-23T08:19:54.626Z,52.00
2018-07-23T08:22:23.649Z,51.80
2018-07-23T08:24:52.684Z,52.50
2018-07-23T08:27:23.304Z,51.70
2018-07-23T08:29:51.539Z,51.60
2018-07-23T08:32:20.089Z,51.60
2018-07-23T08:34:49.558Z,51.50
2018-07-23T08:37:19.030Z,51.40
2018-07-23T08:39:47.292Z,51.30
2018-07-23T08:42:17.279Z,51.20
2018-07-23T08:44:46.889Z,51.30
2018-07-23T08:47:17.905Z,51.30
2018-07-23T08:49:48.277Z,51.20
2018-07-23T08:52:18.006Z,51.10
2018-07-23T08:54:47.667Z,51.20
2018-07-23T08:57:16.366Z,51.20
2018-07-23T08:59:44.831Z,51.10
2018-07-23T09:02:14.175Z,50.90
2018-07-23T09:04:43.735Z,50.90
2018-07-23T09:07:12.611Z,50.80
2018-07-23T09:09:45.232Z,50.80
2018-07-23T09:12:13.783Z,50.90
2018-07-23T09:14:43.266Z,50.70
2018-07-23T09:17:13.244Z,50.60
2018-07-23T09:19:43.775Z,50.60
2018-07-23T09:22:14.735Z,50.40
2018-07-23T09:24:44.306Z,50.50
2018-07-23T09:27:13.315Z,50.20
2018-07-23T09:29:41.935Z,50.10
2018-07-23T09:34:39.566Z,50.00
2018-07-23T09:37:10.377Z,49.90
2018-07-23T09:39:39.156Z,50.00
2018-07-23T09:42:07.743Z,49.80
2018-07-23T09:44:36.552Z,49.60
2018-07-23T09:47:05.601Z,49.50
2018-07-23T09:49:35.526Z,49.60
2018-07-23T09:52:06.664Z,49.50
2018-07-23T09:54:34.931Z,49.40
2018-07-23T09:57:05.775Z,49.50
2018-07-23T09:59:35.107Z,49.50
2018-07-23T10:02:08.050Z,49.50
2018-07-23T10:07:07.006Z,49.40
2018-07-23T10:09:36.404Z,49.30
2018-07-23T10:12:05.198Z,49.30
2018-07-23T10:14:35.713Z,49.20
2018-07-23T10:17:05.077Z,49.10
2018-07-23T10:19:34.079Z,49.20
2018-07-23T10:22:03.718Z,49.00
2018-07-23T10:24:33.430Z,48.80
2018-07-23T10:27:02.056Z,48.60
2018-07-23T10:29:30.730Z,48.50
2018-07-23T10:32:02.368Z,48.40
2018-07-23T10:34:30.683Z,48.30
2018-07-23T10:36:59.179Z,48.10
2018-07-23T10:39:28.634Z,48.10
2018-07-23T10:41:57.475Z,47.90
2018-07-23T10:44:26.885Z,47.50
2018-07-23T10:46:57.320Z,47.60
2018-07-23T10:49:26.789Z,47.50
2018-07-23T10:51:57.438Z,47.60
2018-07-23T10:54:27.357Z,47.30
2018-07-23T10:56:56.811Z,47.50
2018-07-23T10:59:27.782Z,47.50
2018-07-23T11:01:56.944Z,47.00
2018-07-23T11:04:27.088Z,46.90
2018-07-23T11:06:56.807Z,47.00
2018-07-23T11:09:27.651Z,46.40
2018-07-23T11:11:56.387Z,46.60
2018-07-23T11:14:25.746Z,46.60
2018-07-23T11:16:54.038Z,46.60
2018-07-23T11:19:24.152Z,46.30
2018-07-23T11:21:53.744Z,46.20
2018-07-23T11:24:23.763Z,46.10
2018-07-23T11:26:53.796Z,46.00
2018-07-23T11:29:23.514Z,45.80
2018-07-23T11:31:52.748Z,45.70
2018-07-23T11:34:22.111Z,45.30
2018-07-23T11:36:50.680Z,45.30
2018-07-23T11:39:19.471Z,45.00
2018-07-23T11:41:47.667Z,44.80
2018-07-23T11:44:16.911Z,44.40
2018-07-23T11:46:45.135Z,44.80
2018-07-23T11:49:14.094Z,45.10
2018-07-23T11:51:44.519Z,44.70
2018-07-23T11:54:14.907Z,44.40
2018-07-23T11:56:44.023Z,43.80
2018-07-23T11:59:12.272Z,43.90
2018-07-23T12:01:44.893Z,43.70
2018-07-23T12:04:14.355Z,43.70
2018-07-23T12:06:44.322Z,43.50
2018-07-23T12:09:12.884Z,43.30
2018-07-23T12:11:41.279Z,43.00
2018-07-23T12:14:10.092Z,42.90
2018-07-23T12:16:39.821Z,43.20
2018-07-23T12:19:14.741Z,42.60
2018-07-23T12:21:48.651Z,42.70
2018-07-23T12:24:16.883Z,42.50
2018-07-23T12:26:47.270Z,42.10
2018-07-23T12:29:16.152Z,42.40
2018-07-23T12:31:44.385Z,42.40
2018-07-23T12:34:13.331Z,41.50
2018-07-23T12:36:44.443Z,41.30
2018-07-23T12:39:13.523Z,41.50
2018-07-23T12:41:43.291Z,41.10
2018-07-23T12:44:12.766Z,41.10
2018-07-23T12:46:41.022Z,40.80
2018-07-23T12:49:10.349Z,40.60
2018-07-23T12:51:41.095Z,40.00
2018-07-23T12:54:11.776Z,39.50
2018-07-23T12:56:42.126Z,39.00
2018-07-23T12:59:10.363Z,39.10
2018-07-23T13:01:38.670Z,39.30
2018-07-23T13:04:07.985Z,39.10
2018-07-23T13:06:37.707Z,38.90
2018-07-23T13:09:10.844Z,38.80
2018-07-23T13:11:40.129Z,38.30
2018-07-23T13:14:08.709Z,38.40
2018-07-23T13:16:38.184Z,38.60
2018-07-23T13:19:07.599Z,38.80
2018-07-23T13:24:07.090Z,38.30
2018-07-23T13:26:37.240Z,37.90
2018-07-23T13:29:06.791Z,37.60
2018-07-23T13:31:37.123Z,37.70
2018-07-23T13:34:07.196Z,37.60
2018-07-23T13:36:37.063Z,37.40
2018-07-23T13:39:12.957Z,37.30
2018-07-23T13:41:41.386Z,37.30
2018-07-23T13:44:11.142Z,37.10
2018-07-23T13:46:40.098Z,37.20
2018-07-23T13:49:09.572Z,37.30
2018-07-23T13:51:41.015Z,37.50
2018-07-23T13:54:11.047Z,36.00
2018-07-23T13:56:42.012Z,34.70
2018-07-23T13:59:11.921Z,33.00
2018-07-23T14:01:42.255Z,31.20
2018-07-23T14:06:39.020Z,28.50
2018-07-23T14:09:10.574Z,27.40
2018-07-23T14:11:39.259Z,25.40
2018-07-23T14:14:08.327Z,24.70
2018-07-23T14:16:37.433Z,24.00
2018-07-23T14:21:35.371Z,23.10
2018-07-23T14:24:05.108Z,23.40
2018-07-23T14:26:34.334Z,23.10
2018-07-23T14:29:04.113Z,22.30
2018-07-23T14:31:32.394Z,21.60
2018-07-23T14:34:02.987Z,21.30
2018-07-23T14:36:31.274Z,20.50
2018-07-23T14:41:29.438Z,20.30
2018-07-23T14:43:58.936Z,19.80
2018-07-23T14:46:27.396Z,19.80
2018-07-23T14:48:55.657Z,19.60
2018-07-23T14:51:23.985Z,19.80
2018-07-23T14:53:52.491Z,19.60
2018-07-23T14:56:25.003Z,19.90
2018-07-23T14:58:55.396Z,19.40
2018-07-23T15:01:24.171Z,19.50
2018-07-23T15:03:52.608Z,19.20
2018-07-23T15:06:21.477Z,19.30
2018-07-23T15:08:49.761Z,19.40
2018-07-23T15:11:18.347Z,19.30
2018-07-23T15:13:47.045Z,19.10
2018-07-23T15:16:17.278Z,19.30
2018-07-23T15:18:47.851Z,19.10
2018-07-23T15:21:18.655Z,19.00
2018-07-23T15:23:48.535Z,18.90
2018-07-23T15:26:19.466Z,19.10
2018-07-23T15:28:48.273Z,19.10
2018-07-23T15:31:16.571Z,18.70
2018-07-23T15:33:45.627Z,18.90
2018-07-23T15:36:15.099Z,18.90
2018-07-23T15:43:41.920Z,19.40
2018-07-23T15:46:11.974Z,20.00
2018-07-23T15:51:10.283Z,21.40
2018-07-23T15:53:40.163Z,21.80
2018-07-23T15:56:09.274Z,22.50
2018-07-23T15:58:41.794Z,23.10
2018-07-23T16:01:12.977Z,23.90
2018-07-23T16:03:42.345Z,24.50
2018-07-23T16:06:10.557Z,25.20
2018-07-23T16:08:40.685Z,25.60
2018-07-23T16:11:11.065Z,26.10
2018-07-23T16:13:40.206Z,26.60
2018-07-23T16:16:08.457Z,26.90
2018-07-23T16:18:37.893Z,27.20
2018-07-23T16:21:12.150Z,27.50
2018-07-23T16:23:42.663Z,28.00
2018-07-23T16:26:11.286Z,28.20
2018-07-23T16:28:40.442Z,28.60
2018-07-23T16:31:09.049Z,29.20
2018-07-23T16:33:38.407Z,29.30
2018-07-23T16:36:07.059Z,28.90
2018-07-23T16:38:35.884Z,29.10
2018-07-23T16:41:04.131Z,29.30
2018-07-23T16:43:34.299Z,29.60
2018-07-23T16:46:03.054Z,29.40
2018-07-23T16:48:31.955Z,29.50
2018-07-23T16:51:00.696Z,29.60
2018-07-23T16:53:29.710Z,30.00
2018-07-23T16:55:59.902Z,30.20
2018-07-23T16:58:29.281Z,30.30
2018-07-23T17:00:59.274Z,30.40
2018-07-23T17:03:29.095Z,30.60
2018-07-23T17:05:58.003Z,30.90
2018-07-23T17:08:26.718Z,31.20
2018-07-23T17:10:56.099Z,31.20
2018-07-23T17:13:24.955Z,31.30
2018-07-23T17:15:54.163Z,31.40
2018-07-23T17:18:23.171Z,31.60
2018-07-23T17:20:53.014Z,31.80
2018-07-23T17:23:22.952Z,32.10
2018-07-23T17:25:51.186Z,32.00
2018-07-23T17:28:19.446Z,32.00
2018-07-23T17:30:49.815Z,31.70
2018-07-23T17:33:18.722Z,30.60
2018-07-23T17:35:46.964Z,30.30
2018-07-23T17:38:18.854Z,30.40
2018-07-23T17:43:18.670Z,31.20
2018-07-23T17:45:50.070Z,31.30
2018-07-23T17:48:18.656Z,31.50
2018-07-23T17:50:48.578Z,31.60
2018-07-23T17:53:16.760Z,32.00
2018-07-23T17:55:49.724Z,32.20
2018-07-23T17:58:18.245Z,32.60
2018-07-23T18:00:48.559Z,32.90
2018-07-23T18:03:16.839Z,32.40
2018-07-23T18:05:45.794Z,31.20
2018-07-23T18:08:14.871Z,30.00
2018-07-23T18:10:44.914Z,30.00
2018-07-23T18:15:43.705Z,31.50
2018-07-23T18:23:09.688Z,33.10
2018-07-23T18:25:40.427Z,33.40
2018-07-23T18:28:09.338Z,33.80
2018-07-23T18:30:38.627Z,34.00
2018-07-23T18:33:06.898Z,34.30
2018-07-23T18:35:35.085Z,34.50
2018-07-23T18:38:05.954Z,34.70
2018-07-23T18:40:34.337Z,34.90
2018-07-23T18:43:04.718Z,35.10
2018-07-23T18:45:32.947Z,35.30
2018-07-23T18:48:02.943Z,35.50
2018-07-23T18:50:32.374Z,35.80
2018-07-23T18:53:02.034Z,36.60
2018-07-23T18:55:30.617Z,37.10
2018-07-23T18:58:00.945Z,37.80
2018-07-23T19:00:31.730Z,37.50
2018-07-23T19:03:00.407Z,38.60
2018-07-23T19:08:01.433Z,39.40
2018-07-23T19:10:29.827Z,39.90
2018-07-23T19:12:59.719Z,39.90
2018-07-23T19:15:28.620Z,39.90
2018-07-23T19:17:58.027Z,40.50
2018-07-23T19:20:31.291Z,41.00
2018-07-23T19:23:00.989Z,40.80
2018-07-23T19:25:30.044Z,41.00
2018-07-23T19:27:58.704Z,41.20
2018-07-23T19:30:27.340Z,41.00
2018-07-23T19:32:59.156Z,40.70
2018-07-23T19:35:30.760Z,40.80
2018-07-23T19:37:59.600Z,40.80
2018-07-23T19:40:32.993Z,41.40
2018-07-23T19:43:02.903Z,42.10
2018-07-23T19:45:32.421Z,42.50
2018-07-23T19:48:03.017Z,42.90
2018-07-23T19:50:31.394Z,42.80
2018-07-23T19:53:00.333Z,42.50
2018-07-23T19:55:30.141Z,42.40
2018-07-23T19:58:00.116Z,42.40
2018-07-23T20:00:30.834Z,42.30
2018-07-23T20:05:30.448Z,42.50
2018-07-23T20:07:59.566Z,42.70
2018-07-23T20:13:00.858Z,42.70
2018-07-23T20:17:59.725Z,43.40
2018-07-23T20:20:30.030Z,43.50
2018-07-23T20:23:00.942Z,43.70
2018-07-23T20:25:29.960Z,43.90
2018-07-23T20:28:00.321Z,43.90
2018-07-23T20:30:29.217Z,43.90
2018-07-23T20:35:26.979Z,44.80
2018-07-23T20:37:55.646Z,44.10
2018-07-23T20:40:24.717Z,44.20
2018-07-23T20:42:55.871Z,44.20
2018-07-23T20:45:26.032Z,44.30
2018-07-23T20:47:55.270Z,44.50
2018-07-23T20:50:24.043Z,44.60
2018-07-23T20:52:53.153Z,44.70
2018-07-23T20:55:22.885Z,44.80
2018-07-23T20:57:51.094Z,44.90
2018-07-23T21:00:20.695Z,45.30
2018-07-23T21:02:48.892Z,45.70
2018-07-23T21:05:19.017Z,45.60
2018-07-23T21:07:49.150Z,45.70
2018-07-23T21:10:20.842Z,45.70
2018-07-23T21:12:49.330Z,45.70
2018-07-23T21:15:18.454Z,45.80
2018-07-23T21:17:47.559Z,46.10
2018-07-23T21:20:16.666Z,46.30
2018-07-23T21:22:45.322Z,46.50
2018-07-23T21:25:14.239Z,46.50
2018-07-23T21:27:47.650Z,47.00
2018-07-23T21:30:16.459Z,47.20
2018-07-23T21:32:45.471Z,47.10
2018-07-23T21:35:13.886Z,47.40
2018-07-23T21:37:42.455Z,47.40
2018-07-23T21:40:10.912Z,47.20
2018-07-23T21:42:40.942Z,47.20
2018-07-23T21:45:11.438Z,47.20
2018-07-23T21:50:10.396Z,47.70
2018-07-23T21:52:39.299Z,47.80
2018-07-23T21:55:10.346Z,47.90
2018-07-23T21:57:40.102Z,48.00
2018-07-23T22:00:13.914Z,48.20
2018-07-23T22:02:43.047Z,48.60
2018-07-23T22:05:11.880Z,48.60
2018-07-23T22:07:41.288Z,48.70
2018-07-23T22:10:10.546Z,48.80
2018-07-23T22:12:39.939Z,48.70
2018-07-23T22:17:38.725Z,48.90
2018-07-23T22:20:08.058Z,49.20
2018-07-23T22:22:36.674Z,49.20
2018-07-23T22:25:06.332Z,49.30
2018-07-23T22:27:35.298Z,49.40
2018-07-23T22:30:04.127Z,49.50
2018-07-23T22:32:34.152Z,49.60
2018-07-23T22:35:02.488Z,49.80
2018-07-23T22:37:31.326Z,50.00
2018-07-23T22:39:59.570Z,50.30
2018-07-23T22:42:27.782Z,50.30
2018-07-23T22:44:56.534Z,50.30
2018-07-23T22:47:25.248Z,51.10
2018-07-23T22:49:54.458Z,50.70
2018-07-23T22:52:22.733Z,50.90
2018-07-23T22:54:50.918Z,50.90
2018-07-23T22:57:20.187Z,51.00
2018-07-23T22:59:49.046Z,51.00
2018-07-23T23:02:18.102Z,51.20
2018-07-23T23:04:47.789Z,51.30
2018-07-23T23:07:17.191Z,51.30
2018-07-23T23:09:46.805Z,51.50
2018-07-23T23:12:15.433Z,51.60
2018-07-23T23:14:44.398Z,51.50
2018-07-23T23:17:13.397Z,51.60
2018-07-23T23:19:44.028Z,51.90
2018-07-23T23:22:12.794Z,51.90
2018-07-23T23:24:42.096Z,51.90
2018-07-23T23:27:11.043Z,52.00
2018-07-23T23:29:39.245Z,52.10
2018-07-23T23:34:35.442Z,52.30
2018-07-23T23:37:06.195Z,52.40
2018-07-23T23:39:35.878Z,52.50
2018-07-23T23:42:05.651Z,52.60
2018-07-23T23:44:34.797Z,52.70
2018-07-23T23:47:03.998Z,52.90
2018-07-23T23:49:33.782Z,53.10
2018-07-23T23:52:02.467Z,53.10
2018-07-23T23:54:32.418Z,53.20
2018-07-23T23:57:01.744Z,53.20
2018-07-23T23:59:30.938Z,53.40
